Barnett, Georgia
Current Conditions -  °F | °C
As of 3:55 PM on Thursday 20 Nov 2014 (Local Time) from KHQU Reporting Station
Clear Clear  
Wind Chill: 64°   Ceiling: Unl
Heat Index: 64°   Visibility: 10mi
Dew Point: 41°   Wind: 9mph
Humidity: 42%   Direction: 250°WSW
Pressure: 30.19"   Gusts: NA
Location:  33.4918°N, 82.7343°W
Report Text: KHQU 202055Z AUTO 25008KT 220V280 10SM CLR 18/05 A3019 RMK AO1 T01800048
Loading
Personal Weather Stations






























Interactive Weather Map New forecast layout! Learn more

10-Day Weather Forecast

Advertisements
Track Severe Weather on mobile